Data for 01/09/2005

Time Sea-Level Adjusted Pressure Absolute Pressure Temperature Relative Humidity Dew Point   
(mb) (inHg) (mb) (inHg) (C) (F) (%) (C) (F)
00:05 1010 29.83 839 24.78 -14.6 5.8 85 -16.6 2.1
00:10 1010 29.83 839 24.78 -14.5 5.9 84 -16.6 2.1
00:15 1010 29.83 839 24.78 -14.7 5.5 84 -16.9 1.6
00:20 1009 29.8 838 24.75 -14.9 5.2 85 -16.9 1.5
00:25 1009 29.8 838 24.75 -15 5 85 -17 1.4
00:30 1009 29.8 838 24.75 -15.1 4.9 85 -17 1.4
00:35 1009 29.8 838 24.75 -15 5 84 -17.1 1.2
00:40 1009 29.8 838 24.75 -15 4.9 84 -17.1 1.2
00:45 1009 29.8 838 24.75 -15 5 83 -17.3 0.9
00:50 1009 29.8 838 24.75 -15.4 4.3 85 -17.3 0.8
00:55 1009 29.8 838 24.75 -15.5 4.1 87 -17.3 0.9
01:00 1009 29.8 838 24.75 -15.3 4.5 86 -17.2 1.1
01:05 1009 29.8 838 24.75 -15.1 4.9 84 -17.1 1.2
01:10 1009 29.8 838 24.75 -15.1 4.9 84 -17.1 1.1
01:15 1009 29.8 838 24.75 -15 5 84 -17.2 1.1
01:20 1009 29.8 838 24.75 -15 5.1 84 -17.1 1.1
01:25 1009 29.8 838 24.75 -15 5 84 -17.1 1.2
01:30 1009 29.8 838 24.75 -15 4.9 84 -17.2 1
01:35 1009 29.8 838 24.75 -15.1 4.9 84 -17.2 1.1
01:40 1009 29.8 838 24.75 -15.1 4.9 84 -17.3 0.9
01:45 1009 29.8 839 24.78 -15.2 4.7 84 -17.3 0.8
01:50 1009 29.8 839 24.78 -15.3 4.5 85 -17.3 0.9
01:55 1010 29.83 839 24.78 -15.4 4.4 84 -17.5 0.6
02:00 1010 29.83 839 24.78 -15.6 4 86 -17.4 0.6
02:05 1010 29.83 839 24.78 -15.6 3.9 86 -17.4 0.7
02:10 1010 29.83 839 24.78 -15.5 4.2 85 -17.4 0.7
02:15 1010 29.83 839 24.78 -15.5 4.1 86 -17.4 0.7
02:20 1010 29.83 839 24.78 -15.4 4.2 85 -17.4 0.8
02:25 1010 29.83 839 24.78 -15.4 4.2 85 -17.4 0.6
02:30 1010 29.83 839 24.78 -15.4 4.4 84 -17.5 0.5
02:35 1010 29.83 839 24.78 -15.4 4.2 84 -17.6 0.3
02:40 1010 29.83 839 24.78 -15.5 4.2 83 -17.7 0.2
02:45 1011 29.85 840 24.81 -15.5 4.1 84 -17.7 0.2
02:50 1011 29.85 840 24.81 -15.6 3.9 84 -17.7 0.1
02:55 1011 29.85 840 24.81 -15.7 3.8 84 -17.8 -0.1
03:00 1011 29.85 840 24.81 -15.8 3.7 84 -17.9 -0.3
03:05 1011 29.85 840 24.81 -15.8 3.5 84 -17.9 -0.3
03:10 1012 29.88 841 24.83 -15.9 3.4 84 -18 -0.5
03:15 1012 29.88 841 24.83 -16 3.3 84 -18.1 -0.5
03:20 1012 29.88 841 24.83 -16 3.3 83 -18.2 -0.7
03:25 1012 29.88 841 24.83 -16 3.3 84 -18 -0.5
03:30 1012 29.88 841 24.83 -15.9 3.4 83 -18.1 -0.6
03:35 1012 29.88 841 24.83 -16 3.2 83 -18.2 -0.8
03:40 1012 29.88 841 24.83 -16.1 3.1 85 -18.1 -0.6
03:45 1012 29.88 841 24.83 -16.1 3.1 85 -18.1 -0.6
03:50 1012 29.88 841 24.83 -16.2 2.9 85 -18.1 -0.6
03:55 1012 29.88 841 24.83 -16.2 2.9 84 -18.2 -0.8
04:00 1012 29.88 841 24.83 -16.2 2.8 85 -18.2 -0.8
04:05 1012 29.88 841 24.83 -16.2 2.8 85 -18.1 -0.6
04:10 1012 29.88 841 24.83 -16.2 2.9 85 -18.1 -0.6
04:15 1012 29.88 841 24.83 -16.2 2.9 85 -18.1 -0.6
04:20 1012 29.88 841 24.83 -16.2 2.9 85 -18.2 -0.8
04:25 1012 29.88 841 24.83 -16.2 2.9 85 -18.2 -0.7
04:30 1012 29.88 841 24.83 -16.2 2.9 85 -18.2 -0.7
04:35 1012 29.88 841 24.83 -16.2 2.8 86 -18.1 -0.5
04:40 1012 29.88 841 24.83 -16.2 2.9 85 -18.1 -0.6
04:45 1012 29.88 841 24.83 -16.2 2.9 86 -18.1 -0.6
04:50 1012 29.88 841 24.83 -16.2 2.8 85 -18.2 -0.7
04:55 1012 29.88 841 24.83 -16.3 2.7 85 -18.2 -0.7
05:00 1012 29.88 841 24.83 -16.4 2.5 86 -18.2 -0.8
05:05 1012 29.88 841 24.83 -16.4 2.5 87 -18.2 -0.7
05:10 1011 29.85 841 24.83 -16.3 2.6 86 -18.2 -0.8
05:15 1011 29.85 840 24.81 -16.4 2.5 87 -18.1 -0.5
05:20 1011 29.85 840 24.81 -16.4 2.6 85 -18.3 -0.9
05:25 1011 29.85 841 24.83 -16.4 2.4 87 -18.1 -0.6
05:30 1011 29.85 841 24.83 -16.2 2.8 87 -17.9 -0.2
05:35 1011 29.85 841 24.83 -16 3.3 86 -17.8 -0.1
05:40 1012 29.88 841 24.83 -15.8 3.6 85 -17.7 0.1
05:45 1012 29.88 841 24.83 -15.7 3.7 83 -17.9 -0.3
05:50 1011 29.85 841 24.83 -16 3.2 85 -18 -0.5
05:55 1012 29.88 841 24.83 -16 3.1 85 -18 -0.4
06:00 1012 29.88 841 24.83 -15.8 3.5 84 -17.9 -0.2
06:05 1012 29.88 841 24.83 -15.9 3.4 84 -18 -0.4
06:10 1012 29.88 841 24.83 -16.1 3.1 85 -18 -0.5
06:15 1012 29.88 841 24.83 -15.9 3.5 84 -17.9 -0.3
06:20 1012 29.88 841 24.83 -16 3.3 85 -18 -0.4
06:25 1012 29.88 841 24.83 -16 3.3 85 -18 -0.4
06:30 1012 29.88 841 24.83 -16 3.3 84 -18 -0.5
06:35 1012 29.88 841 24.83 -16 3.2 83 -18.2 -0.8
06:40 1012 29.88 842 24.86 -16.3 2.7 84 -18.4 -1
06:45 1013 29.91 842 24.86 -16.4 2.5 85 -18.4 -1.1
06:50 1013 29.91 842 24.86 -16.3 2.6 85 -18.3 -0.9
06:55 1012 29.88 842 24.86 -16.3 2.7 82 -18.6 -1.5
07:00 1012 29.88 842 24.86 -16.5 2.4 84 -18.5 -1.3
07:05 1012 29.88 842 24.86 -16.4 2.4 85 -18.4 -1.2
07:10 1012 29.88 842 24.86 -16.3 2.6 84 -18.5 -1.3
07:15 1012 29.88 842 24.86 -16.6 2.1 85 -18.5 -1.4
07:20 1013 29.91 842 24.86 -16.4 2.4 84 -18.5 -1.3
07:25 1013 29.91 842 24.86 -16.5 2.3 85 -18.5 -1.2
07:30 1013 29.91 842 24.86 -16.5 2.3 84 -18.6 -1.5
07:35 1013 29.91 842 24.86 -16.5 2.2 85 -18.5 -1.4
07:40 1013 29.91 842 24.86 -16.5 2.3 85 -18.4 -1.2
07:45 1013 29.91 842 24.86 -16.6 2.2 85 -18.5 -1.3
07:50 1013 29.91 842 24.86 -16.6 2.2 86 -18.4 -1.1
07:55 1013 29.91 842 24.86 -16.5 2.3 86 -18.3 -1
08:00 1013 29.91 842 24.86 -16.4 2.4 85 -18.3 -1
08:05 1013 29.91 843 24.89 -16.7 2 85 -18.7 -1.6
08:10 1013 29.91 843 24.89 -16.8 1.7 86 -18.7 -1.6
08:15 1013 29.91 843 24.89 -16.8 1.8 86 -18.6 -1.4
08:20 1013 29.91 843 24.89 -16.8 1.8 86 -18.6 -1.4
08:25 1013 29.91 843 24.89 -16.6 2.1 86 -18.4 -1.2
08:30 1013 29.91 843 24.89 -16.7 2 86 -18.4 -1.2
08:35 1013 29.91 843 24.89 -16.7 2 86 -18.5 -1.2
08:40 1013 29.91 843 24.89 -16.7 1.9 86 -18.6 -1.5
08:45 1013 29.91 843 24.89 -16.7 2 85 -18.6 -1.4
08:50 1013 29.91 843 24.89 -16.2 2.8 83 -18.5 -1.4
08:55 1014 29.94 843 24.89 -15.7 3.7 81 -18.2 -0.8
09:00 1014 29.94 843 24.89 -15.2 4.6 79 -18.1 -0.5
09:05 1014 29.94 843 24.89 -15.2 4.7 79 -18 -0.4
09:10 1014 29.94 843 24.89 -15.1 4.8 78 -18.1 -0.6
09:15 1014 29.94 843 24.89 -15.1 4.9 77 -18.2 -0.7
09:20 1014 29.94 843 24.89 -14.9 5.1 77 -18.2 -0.7
09:25 1014 29.94 843 24.89 -15 5 77 -18.2 -0.8
09:30 1014 29.94 843 24.89 -14.9 5.3 76 -18.2 -0.7
09:35 1014 29.94 843 24.89 -15 5 77 -18.2 -0.8
09:40 1014 29.94 844 24.92 -14.9 5.1 76 -18.2 -0.8
09:45 1014 29.94 844 24.92 -14.5 5.9 73 -18.3 -0.9
09:50 1014 29.94 843 24.89 -14 6.9 71 -18.1 -0.6
09:55 1014 29.94 843 24.89 -13.6 7.6 69 -18 -0.4
10:00 1014 29.94 844 24.92 -13 8.6 67 -18 -0.4
10:05 1014 29.94 843 24.89 -13 8.6 68 -17.8 -0.1
10:10 1014 29.94 844 24.92 -12.9 8.7 68 -17.6 0.3
10:15 1014 29.94 844 24.92 -13.1 8.4 68 -17.8 -0.1
10:20 1014 29.94 844 24.92 -12.9 8.9 66 -18 -0.4
10:25 1014 29.94 844 24.92 -12.9 8.9 66 -17.9 -0.2
10:30 1014 29.94 844 24.92 -13 8.6 67 -17.8 -0.1
10:35 1014 29.94 844 24.92 -13 8.6 68 -17.8 0
10:40 1014 29.94 844 24.92 -13.1 8.4 68 -17.9 -0.1
10:45 1014 29.94 844 24.92 -12.6 9.4 65 -17.9 -0.3
10:50 1015 29.97 844 24.92 -12.4 9.8 65 -17.7 0.1
10:55 1015 29.97 844 24.92 -12.6 9.3 65 -17.9 -0.1
11:00 1014 29.94 844 24.92 -12.3 9.8 63 -17.9 -0.2
11:05 1014 29.94 844 24.92 -12.2 10 64 -17.7 0.2
11:10 1015 29.97 844 24.92 -12.2 10.1 63 -17.9 -0.1
11:15 1014 29.94 844 24.92 -12.2 10 65 -17.6 0.3
11:20 1014 29.94 844 24.92 -12.5 9.5 64 -17.9 -0.3
11:25 1014 29.94 844 24.92 -13.2 8.3 68 -17.9 -0.2
11:30 1014 29.94 844 24.92 -14.1 6.6 71 -18.3 -0.9
11:35 1014 29.94 843 24.89 -13.8 7.2 69 -18.2 -0.8
11:40 1014 29.94 843 24.89 -13.1 8.4 67 -18 -0.4
11:45 1014 29.94 843 24.89 -12.7 9.2 66 -17.7 0.1
11:50 1014 29.94 843 24.89 -12.8 9 65 -18 -0.4
11:55 1014 29.94 843 24.89 -13 8.6 66 -18 -0.5
12:00 1014 29.94 843 24.89 -13.4 7.9 69 -18 -0.4
12:05 1014 29.94 843 24.89 -12.8 9 65 -18.1 -0.5
12:10 1014 29.94 843 24.89 -12.3 10 65 -17.6 0.3
12:15 1013 29.91 843 24.89 -11.9 10.6 63 -17.6 0.3
12:20 1013 29.91 842 24.86 -12.7 9.2 66 -17.7 0.1
12:25 1013 29.91 842 24.86 -12.8 9 66 -17.8 -0
12:30 1013 29.91 842 24.86 -12.5 9.6 65 -17.7 0.1
12:35 1013 29.91 842 24.86 -12.5 9.5 66 -17.6 0.4
12:40 1013 29.91 842 24.86 -12.2 10 65 -17.5 0.5
12:45 1013 29.91 842 24.86 -12 10.3 64 -17.5 0.6
12:50 1013 29.91 842 24.86 -11.9 10.6 63 -17.5 0.4
12:55 1013 29.91 842 24.86 -11.3 11.7 59 -17.8 -0.1
13:00 1013 29.91 842 24.86 -11.3 11.7 62 -17.3 0.9
13:05 1013 29.91 842 24.86 -11.5 11.4 60 -17.7 0.1
13:10 1013 29.91 842 24.86 -11.8 10.7 61 -17.8 -0.1
13:15 1013 29.91 842 24.86 -11.6 11.1 61 -17.8 -0
13:20 1013 29.91 842 24.86 -11.6 11.2 63 -17.4 0.7
13:25 1013 29.91 842 24.86 -12.2 10 65 -17.4 0.6
13:30 1013 29.91 842 24.86 -12.8 9 67 -17.7 0.1
13:35 1013 29.91 842 24.86 -12.9 8.8 68 -17.6 0.4
13:40 1013 29.91 842 24.86 -13.5 7.8 71 -17.6 0.3
13:45 1013 29.91 842 24.86 -13.8 7.3 72 -17.8 -0.1
13:50 1013 29.91 842 24.86 -13.5 7.6 71 -17.7 0.2
13:55 1013 29.91 842 24.86 -13.5 7.8 70 -17.8 0
14:00 1012 29.88 842 24.86 -13.9 7 73 -17.8 0
14:05 1013 29.91 842 24.86 -14.1 6.7 75 -17.7 0.2
14:10 1013 29.91 842 24.86 -14 6.9 75 -17.4 0.6
14:15 1013 29.91 842 24.86 -14.3 6.3 75 -17.8 -0.1
14:20 1013 29.91 842 24.86 -14.6 5.7 75 -18.1 -0.5
14:25 1013 29.91 842 24.86 -14.6 5.7 77 -17.9 -0.2
14:30 1013 29.91 842 24.86 -14.6 5.8 77 -17.8 -0.1
14:35 1013 29.91 842 24.86 -14.5 5.9 75 -18.1 -0.5
14:40 1013 29.91 842 24.86 -14.2 6.4 74 -17.9 -0.3
14:45 1013 29.91 842 24.86 -14.6 5.8 76 -17.8 -0.1
14:50 1013 29.91 842 24.86 -14.3 6.2 74 -18 -0.4
14:55 1013 29.91 842 24.86 -14.2 6.4 74 -17.9 -0.3
15:00 1013 29.91 842 24.86 -14.6 5.6 77 -17.8 -0
15:05 1013 29.91 842 24.86 -14.9 5.3 77 -18.1 -0.5
15:10 1013 29.91 842 24.86 -14.9 5.2 78 -17.9 -0.3
15:15 1013 29.91 842 24.86 -14.4 6 78 -17.5 0.6
15:20 1013 29.91 842 24.86 -14.4 6.2 76 -17.7 0.1
15:25 1013 29.91 843 24.89 -14.7 5.6 79 -17.5 0.4
15:30 1013 29.91 843 24.89 -14.5 5.9 77 -17.7 0.1
15:35 1014 29.94 843 24.89 -14.3 6.2 76 -17.7 0.1
15:40 1014 29.94 843 24.89 -14.4 6.2 79 -17.2 1
15:45 1014 29.94 843 24.89 -13.9 7.1 75 -17.3 0.8
15:50 1014 29.94 843 24.89 -13.6 7.4 73 -17.5 0.5
15:55 1014 29.94 843 24.89 -14.1 6.6 75 -17.7 0.1
16:00 1014 29.94 843 24.89 -14.8 5.4 77 -17.9 -0.2
16:05 1014 29.94 843 24.89 -14.6 5.7 76 -17.9 -0.2
16:10 1014 29.94 843 24.89 -14.6 5.7 76 -17.9 -0.2
16:15 1014 29.94 843 24.89 -14.9 5.2 79 -17.8 -0
16:20 1013 29.91 843 24.89 -14.8 5.3 81 -17.4 0.6
16:25 1013 29.91 843 24.89 -14.8 5.4 81 -17.3 0.8
16:30 1013 29.91 843 24.89 -14.7 5.6 81 -17.2 1
16:35 1013 29.91 842 24.86 -14.7 5.6 81 -17.2 1
16:40 1013 29.91 842 24.86 -14.6 5.8 82 -17.1 1.3
16:45 1013 29.91 843 24.89 -14.6 5.8 81 -17.1 1.1
16:50 1013 29.91 842 24.86 -14.5 5.8 81 -17.1 1.2
16:55 1013 29.91 842 24.86 -14.5 5.8 81 -17.2 1.1
17:00 1013 29.91 842 24.86 -14.5 6 82 -16.9 1.6
17:05 1013 29.91 842 24.86 -14.2 6.4 81 -16.8 1.8
17:10 1013 29.91 842 24.86 -14.1 6.7 81 -16.7 2
17:15 1013 29.91 842 24.86 -14 6.8 82 -16.5 2.4
17:20 1013 29.91 842 24.86 -13.7 7.3 81 -16.3 2.7
17:25 1013 29.91 842 24.86 -13.4 7.8 81 -16.1 3.1
17:30 1013 29.91 842 24.86 -13.1 8.4 80 -15.9 3.4
17:35 1013 29.91 842 24.86 -12.9 8.8 80 -15.7 3.7
17:40 1013 29.91 842 24.86 -12.6 9.2 79 -15.5 4
17:45 1013 29.91 842 24.86 -12.5 9.5 78 -15.5 4
17:50 1013 29.91 843 24.89 -12.6 9.3 80 -15.4 4.4
17:55 1013 29.91 843 24.89 -12.6 9.2 80 -15.4 4.4
18:00 1013 29.91 843 24.89 -12.9 8.7 80 -15.6 3.9
18:05 1014 29.94 843 24.89 -13.1 8.4 80 -15.9 3.4
18:10 1014 29.94 843 24.89 -13.2 8.3 81 -15.9 3.4
18:15 1013 29.91 843 24.89 -13.1 8.4 79 -16 3.1
18:20 1013 29.91 843 24.89 -13.7 7.3 84 -15.9 3.3
18:25 1014 29.94 843 24.89 -13.4 7.9 82 -15.8 3.5
18:30 1014 29.94 843 24.89 -13.2 8.2 81 -15.8 3.6
18:35 1013 29.91 843 24.89 -13.1 8.5 81 -15.8 3.6
18:40 1013 29.91 843 24.89 -13.1 8.4 82 -15.6 4
18:45 1013 29.91 843 24.89 -12.9 8.7 80 -15.7 3.8
18:50 1013 29.91 843 24.89 -12.9 8.7 81 -15.5 4.1
18:55 1013 29.91 843 24.89 -12.8 9.1 80 -15.5 4
19:00 1013 29.91 843 24.89 -12.6 9.3 80 -15.3 4.4
19:05 1013 29.91 843 24.89 -12.5 9.5 81 -15.2 4.7
19:10 1013 29.91 843 24.89 -12.4 9.7 81 -15.1 4.9
19:15 1013 29.91 843 24.89 -12.3 9.8 81 -15 5
19:20 1014 29.94 843 24.89 -12.2 10 80 -15 5.1
19:25 1014 29.94 843 24.89 -12.1 10.3 79 -15 5
19:30 1014 29.94 843 24.89 -12 10.3 79 -14.9 5.1
19:35 1014 29.94 843 24.89 -12.1 10.3 78 -15.1 4.8
19:40 1014 29.94 843 24.89 -12.2 10.1 78 -15.2 4.6
19:45 1014 29.94 843 24.89 -12.3 9.9 79 -15.2 4.7
19:50 1014 29.94 843 24.89 -12.4 9.7 80 -15.1 4.8
19:55 1014 29.94 843 24.89 -12.2 10.1 79 -15.1 4.9
20:00 1014 29.94 843 24.89 -12.2 10 78 -15.3 4.4
20:05 1014 29.94 843 24.89 -12.5 9.6 79 -15.4 4.3
20:10 1014 29.94 843 24.89 -12.7 9.2 80 -15.4 4.3
20:15 1014 29.94 843 24.89 -12.8 9 81 -15.3 4.4
20:20 1014 29.94 843 24.89 -12.7 9.2 80 -15.4 4.3
20:25 1014 29.94 843 24.89 -12.7 9.2 80 -15.4 4.2
20:30 1014 29.94 843 24.89 -12.7 9.2 79 -15.6 3.9
20:35 1013 29.91 843 24.89 -12.8 9 80 -15.6 3.9
20:40 1013 29.91 843 24.89 -12.8 9 81 -15.5 4.2
20:45 1013 29.91 843 24.89 -12.7 9.1 80 -15.5 4.1
20:50 1013 29.91 843 24.89 -12.9 8.9 81 -15.5 4
20:55 1013 29.91 843 24.89 -13 8.7 82 -15.5 4.2
21:00 1013 29.91 843 24.89 -13 8.6 82 -15.5 4.2
21:05 1013 29.91 843 24.89 -13 8.5 82 -15.5 4.2
21:10 1013 29.91 842 24.86 -13.2 8.3 83 -15.5 4.1
21:15 1013 29.91 842 24.86 -13.3 8.1 84 -15.4 4.2
21:20 1013 29.91 842 24.86 -13.3 8.2 84 -15.4 4.3
21:25 1013 29.91 842 24.86 -13.1 8.5 83 -15.4 4.3
21:30 1013 29.91 842 24.86 -13.2 8.2 85 -15.3 4.4
21:35 1013 29.91 842 24.86 -13.2 8.2 85 -15.2 4.6
21:40 1013 29.91 842 24.86 -13.3 8.1 85 -15.3 4.5
21:45 1013 29.91 842 24.86 -13.3 8.2 86 -15.1 4.8
21:50 1013 29.91 842 24.86 -13.1 8.4 85 -15.2 4.7
21:55 1013 29.91 842 24.86 -13.2 8.3 84 -15.3 4.5
22:00 1013 29.91 842 24.86 -13.1 8.5 85 -15.1 4.7
22:05 1013 29.91 842 24.86 -13 8.5 85 -15.1 4.8
22:10 1013 29.91 842 24.86 -13 8.6 85 -15 5
22:15 1013 29.91 842 24.86 -13 8.7 86 -14.9 5.2
22:20 1013 29.91 842 24.86 -12.9 8.8 84 -15 5
22:25 1013 29.91 843 24.89 -13.1 8.5 84 -15.2 4.7
22:30 1013 29.91 843 24.89 -13.3 8 85 -15.4 4.3
22:35 1013 29.91 843 24.89 -13.3 8 83 -15.6 3.9
22:40 1014 29.94 843 24.89 -13.5 7.8 83 -15.8 3.6
22:45 1014 29.94 843 24.89 -13.7 7.4 84 -15.9 3.5
22:50 1014 29.94 843 24.89 -13.9 7 84 -16.1 3
22:55 1014 29.94 843 24.89 -14.1 6.6 83 -16.5 2.4
23:00 1014 29.94 843 24.89 -14.3 6.3 84 -16.4 2.4
23:05 1014 29.94 843 24.89 -14.4 6 83 -16.7 2
23:10 1014 29.94 843 24.89 -14.6 5.8 84 -16.7 1.9
23:15 1014 29.94 843 24.89 -14.8 5.3 85 -16.8 1.8
23:20 1014 29.94 843 24.89 -14.8 5.3 85 -16.8 1.8
23:25 1014 29.94 843 24.89 -14.8 5.3 84 -16.9 1.5
23:30 1014 29.94 843 24.89 -15.2 4.7 85 -17.2 1.1
23:35 1014 29.94 843 24.89 -15.6 3.8 88 -17.3 0.9
23:40 1014 29.94 843 24.89 -15.6 4 87 -17.2 1
23:45 1014 29.94 843 24.89 -15.4 4.3 88 -17 1.4
23:50 1014 29.94 843 24.89 -15.4 4.3 88 -17 1.5
23:55 1014 29.94 843 24.89 -15.3 4.5 87 -16.9 1.5
24:00 1014 29.94 843 24.89 -15.4 4.4 88 -16.9 1.6